sensor_id;sensor_type;location;lat;lon;timestamp;P1;durP1;ratioP1;P2;durP2;ratioP2
30215;SDS011;17028;47.642;8.070;2022-09-21T00:02:23;2.10;;;1.13;;
30215;SDS011;17028;47.642;8.070;2022-09-21T00:07:24;4.72;;;1.40;;
30215;SDS011;17028;47.642;8.070;2022-09-21T00:12:25;3.25;;;1.23;;
30215;SDS011;17028;47.642;8.070;2022-09-21T00:17:26;3.05;;;1.10;;
30215;SDS011;17028;47.642;8.070;2022-09-21T00:22:27;3.50;;;1.40;;
30215;SDS011;17028;47.642;8.070;2022-09-21T00:27:29;3.72;;;1.60;;
30215;SDS011;17028;47.642;8.070;2022-09-21T00:32:31;2.40;;;1.10;;
30215;SDS011;17028;47.642;8.070;2022-09-21T00:37:34;3.72;;;1.10;;
30215;SDS011;17028;47.642;8.070;2022-09-21T00:42:35;3.42;;;1.50;;
30215;SDS011;17028;47.642;8.070;2022-09-21T00:47:40;3.45;;;1.13;;
30215;SDS011;17028;47.642;8.070;2022-09-21T00:52:44;3.15;;;1.20;;
30215;SDS011;17028;47.642;8.070;2022-09-21T00:57:52;2.40;;;1.10;;
30215;SDS011;17028;47.642;8.070;2022-09-21T01:02:57;4.32;;;1.83;;
30215;SDS011;17028;47.642;8.070;2022-09-21T01:08:01;2.58;;;1.20;;
30215;SDS011;17028;47.642;8.070;2022-09-21T01:13:16;2.90;;;1.50;;
30215;SDS011;17028;47.642;8.070;2022-09-21T01:35:03;3.67;;;1.50;;
30215;SDS011;17028;47.642;8.070;2022-09-21T01:40:30;3.22;;;1.30;;
30215;SDS011;17028;47.642;8.070;2022-09-21T01:45:35;3.13;;;1.23;;
30215;SDS011;17028;47.642;8.070;2022-09-21T01:50:40;3.45;;;1.50;;
30215;SDS011;17028;47.642;8.070;2022-09-21T01:55:53;4.32;;;1.90;;
30215;SDS011;17028;47.642;8.070;2022-09-21T02:00:57;3.92;;;1.60;;
30215;SDS011;17028;47.642;8.070;2022-09-21T02:05:59;5.57;;;1.50;;
30215;SDS011;17028;47.642;8.070;2022-09-21T02:11:01;3.22;;;1.73;;
30215;SDS011;17028;47.642;8.070;2022-09-21T02:21:12;4.38;;;1.90;;
30215;SDS011;17028;47.642;8.070;2022-09-21T02:26:22;4.75;;;1.80;;
30215;SDS011;17028;47.642;8.070;2022-09-21T02:31:30;4.97;;;2.17;;
30215;SDS011;17028;47.642;8.070;2022-09-21T02:36:41;4.28;;;1.92;;
30215;SDS011;17028;47.642;8.070;2022-09-21T02:47:08;3.13;;;1.90;;
30215;SDS011;17028;47.642;8.070;2022-09-21T02:52:14;5.78;;;2.35;;
30215;SDS011;17028;47.642;8.070;2022-09-21T02:57:18;6.15;;;3.40;;
30215;SDS011;17028;47.642;8.070;2022-09-21T03:02:21;7.03;;;4.10;;
30215;SDS011;17028;47.642;8.070;2022-09-21T03:07:22;5.63;;;2.95;;
30215;SDS011;17028;47.642;8.070;2022-09-21T03:12:23;4.53;;;2.30;;
30215;SDS011;17028;47.642;8.070;2022-09-21T03:17:24;4.90;;;2.25;;
30215;SDS011;17028;47.642;8.070;2022-09-21T03:22:26;4.18;;;2.20;;
30215;SDS011;17028;47.642;8.070;2022-09-21T03:27:27;4.35;;;2.47;;
30215;SDS011;17028;47.642;8.070;2022-09-21T03:32:29;5.57;;;2.58;;
30215;SDS011;17028;47.642;8.070;2022-09-21T03:37:30;4.55;;;2.40;;
30215;SDS011;17028;47.642;8.070;2022-09-21T03:42:31;4.38;;;2.40;;
30215;SDS011;17028;47.642;8.070;2022-09-21T03:47:32;3.05;;;1.95;;
30215;SDS011;17028;47.642;8.070;2022-09-21T03:52:33;5.32;;;2.70;;
30215;SDS011;17028;47.642;8.070;2022-09-21T03:57:37;5.07;;;2.58;;
30215;SDS011;17028;47.642;8.070;2022-09-21T04:02:39;5.85;;;2.53;;
30215;SDS011;17028;47.642;8.070;2022-09-21T04:07:40;6.78;;;2.97;;
30215;SDS011;17028;47.642;8.070;2022-09-21T04:12:42;6.70;;;2.92;;
30215;SDS011;17028;47.642;8.070;2022-09-21T04:17:44;7.40;;;3.03;;
30215;SDS011;17028;47.642;8.070;2022-09-21T04:22:46;6.25;;;2.70;;
30215;SDS011;17028;47.642;8.070;2022-09-21T04:27:47;7.03;;;2.88;;
30215;SDS011;17028;47.642;8.070;2022-09-21T04:32:48;4.53;;;2.35;;
30215;SDS011;17028;47.642;8.070;2022-09-21T04:37:50;5.93;;;2.45;;
30215;SDS011;17028;47.642;8.070;2022-09-21T04:42:54;6.07;;;2.60;;
30215;SDS011;17028;47.642;8.070;2022-09-21T04:47:55;5.65;;;2.70;;
30215;SDS011;17028;47.642;8.070;2022-09-21T04:52:56;5.70;;;2.65;;
30215;SDS011;17028;47.642;8.070;2022-09-21T04:57:58;10.13;;;2.67;;
30215;SDS011;17028;47.642;8.070;2022-09-21T05:02:59;5.65;;;2.40;;
30215;SDS011;17028;47.642;8.070;2022-09-21T05:08:00;6.07;;;2.53;;
30215;SDS011;17028;47.642;8.070;2022-09-21T05:13:01;4.40;;;2.28;;
30215;SDS011;17028;47.642;8.070;2022-09-21T05:18:02;5.03;;;2.40;;
30215;SDS011;17028;47.642;8.070;2022-09-21T05:23:03;7.47;;;2.20;;
30215;SDS011;17028;47.642;8.070;2022-09-21T05:28:04;4.20;;;2.22;;
30215;SDS011;17028;47.642;8.070;2022-09-21T05:33:06;4.13;;;2.22;;
30215;SDS011;17028;47.642;8.070;2022-09-21T05:38:17;4.60;;;2.00;;
30215;SDS011;17028;47.642;8.070;2022-09-21T05:43:19;6.90;;;2.15;;
30215;SDS011;17028;47.642;8.070;2022-09-21T05:48:20;5.15;;;2.20;;
30215;SDS011;17028;47.642;8.070;2022-09-21T06:03:59;4.28;;;2.05;;
30215;SDS011;17028;47.642;8.070;2022-09-21T06:09:02;4.55;;;2.22;;
30215;SDS011;17028;47.642;8.070;2022-09-21T06:14:03;4.50;;;2.08;;
30215;SDS011;17028;47.642;8.070;2022-09-21T06:19:04;8.32;;;2.50;;
30215;SDS011;17028;47.642;8.070;2022-09-21T06:24:05;6.20;;;2.13;;
30215;SDS011;17028;47.642;8.070;2022-09-21T06:29:06;4.53;;;2.08;;
30215;SDS011;17028;47.642;8.070;2022-09-21T06:34:07;5.70;;;2.05;;
30215;SDS011;17028;47.642;8.070;2022-09-21T06:39:08;5.30;;;2.08;;
30215;SDS011;17028;47.642;8.070;2022-09-21T06:44:09;8.73;;;4.15;;
30215;SDS011;17028;47.642;8.070;2022-09-21T06:49:10;16.08;;;7.57;;
30215;SDS011;17028;47.642;8.070;2022-09-21T06:54:11;6.15;;;2.70;;
30215;SDS011;17028;47.642;8.070;2022-09-21T06:59:12;9.32;;;2.30;;
30215;SDS011;17028;47.642;8.070;2022-09-21T07:04:13;4.03;;;1.85;;
30215;SDS011;17028;47.642;8.070;2022-09-21T07:09:14;7.15;;;2.22;;
30215;SDS011;17028;47.642;8.070;2022-09-21T07:14:15;4.13;;;1.60;;
30215;SDS011;17028;47.642;8.070;2022-09-21T07:19:16;4.70;;;1.75;;
30215;SDS011;17028;47.642;8.070;2022-09-21T07:24:17;6.65;;;2.05;;
30215;SDS011;17028;47.642;8.070;2022-09-21T07:29:18;4.57;;;2.00;;
30215;SDS011;17028;47.642;8.070;2022-09-21T07:34:19;4.25;;;1.38;;
30215;SDS011;17028;47.642;8.070;2022-09-21T07:39:20;5.68;;;1.65;;
30215;SDS011;17028;47.642;8.070;2022-09-21T07:44:21;4.60;;;1.80;;
30215;SDS011;17028;47.642;8.070;2022-09-21T07:49:22;3.85;;;1.70;;
30215;SDS011;17028;47.642;8.070;2022-09-21T07:54:23;5.20;;;2.10;;
30215;SDS011;17028;47.642;8.070;2022-09-21T07:59:24;5.15;;;1.98;;
30215;SDS011;17028;47.642;8.070;2022-09-21T08:04:25;5.07;;;2.13;;
30215;SDS011;17028;47.642;8.070;2022-09-21T08:09:26;6.60;;;1.80;;
30215;SDS011;17028;47.642;8.070;2022-09-21T08:14:27;4.85;;;2.10;;
30215;SDS011;17028;47.642;8.070;2022-09-21T08:19:28;5.20;;;1.75;;
30215;SDS011;17028;47.642;8.070;2022-09-21T08:24:29;12.88;;;4.43;;
30215;SDS011;17028;47.642;8.070;2022-09-21T08:29:31;8.68;;;3.78;;
30215;SDS011;17028;47.642;8.070;2022-09-21T08:34:32;11.50;;;4.53;;
30215;SDS011;17028;47.642;8.070;2022-09-21T08:39:33;9.23;;;3.67;;
30215;SDS011;17028;47.642;8.070;2022-09-21T08:49:49;10.45;;;3.33;;
30215;SDS011;17028;47.642;8.070;2022-09-21T08:55:02;5.53;;;1.90;;
30215;SDS011;17028;47.642;8.070;2022-09-21T09:00:13;3.85;;;1.70;;
30215;SDS011;17028;47.642;8.070;2022-09-21T09:16:10;5.75;;;2.10;;
30215;SDS011;17028;47.642;8.070;2022-09-21T09:21:34;5.22;;;1.65;;
30215;SDS011;17028;47.642;8.070;2022-09-21T09:26:47;3.90;;;1.75;;
30215;SDS011;17028;47.642;8.070;2022-09-21T09:31:56;3.88;;;1.40;;
30215;SDS011;17028;47.642;8.070;2022-09-21T09:37:01;5.45;;;1.73;;
30215;SDS011;17028;47.642;8.070;2022-09-21T09:52:29;4.93;;;1.77;;
30215;SDS011;17028;47.642;8.070;2022-09-21T09:57:32;3.05;;;1.20;;
30215;SDS011;17028;47.642;8.070;2022-09-21T10:02:33;3.40;;;1.40;;
30215;SDS011;17028;47.642;8.070;2022-09-21T10:07:52;3.83;;;1.20;;
30215;SDS011;17028;47.642;8.070;2022-09-21T10:12:54;5.28;;;1.30;;
30215;SDS011;17028;47.642;8.070;2022-09-21T10:17:59;4.15;;;1.23;;
30215;SDS011;17028;47.642;8.070;2022-09-21T10:23:16;4.07;;;1.30;;
30215;SDS011;17028;47.642;8.070;2022-09-21T10:28:18;4.18;;;1.58;;
30215;SDS011;17028;47.642;8.070;2022-09-21T10:33:22;6.28;;;1.30;;
30215;SDS011;17028;47.642;8.070;2022-09-21T10:38:25;3.78;;;1.25;;
30215;SDS011;17028;47.642;8.070;2022-09-21T10:43:34;5.25;;;1.50;;
30215;SDS011;17028;47.642;8.070;2022-09-21T10:48:45;4.85;;;1.40;;
30215;SDS011;17028;47.642;8.070;2022-09-21T10:53:46;3.95;;;1.10;;
30215;SDS011;17028;47.642;8.070;2022-09-21T11:09:37;4.07;;;1.17;;
30215;SDS011;17028;47.642;8.070;2022-09-21T11:20:08;5.38;;;1.10;;
30215;SDS011;17028;47.642;8.070;2022-09-21T11:30:35;3.65;;;1.27;;
30215;SDS011;17028;47.642;8.070;2022-09-21T11:41:12;5.07;;;1.15;;
30215;SDS011;17028;47.642;8.070;2022-09-21T11:46:25;2.38;;;1.05;;
30215;SDS011;17028;47.642;8.070;2022-09-21T12:08:40;1.50;;;0.80;;
30215;SDS011;17028;47.642;8.070;2022-09-21T12:13:58;1.60;;;0.90;;
30215;SDS011;17028;47.642;8.070;2022-09-21T12:24:29;3.92;;;0.88;;
30215;SDS011;17028;47.642;8.070;2022-09-21T12:29:38;2.90;;;0.90;;
30215;SDS011;17028;47.642;8.070;2022-09-21T12:34:59;2.38;;;1.17;;
30215;SDS011;17028;47.642;8.070;2022-09-21T12:45:38;1.50;;;0.90;;
30215;SDS011;17028;47.642;8.070;2022-09-21T12:50:47;2.05;;;1.10;;
30215;SDS011;17028;47.642;8.070;2022-09-21T12:56:00;2.20;;;1.08;;
30215;SDS011;17028;47.642;8.070;2022-09-21T13:11:48;1.40;;;0.60;;
30215;SDS011;17028;47.642;8.070;2022-09-21T13:16:53;2.00;;;1.00;;
30215;SDS011;17028;47.642;8.070;2022-09-21T13:27:13;2.55;;;0.80;;
30215;SDS011;17028;47.642;8.070;2022-09-21T13:47:33;1.17;;;0.52;;
30215;SDS011;17028;47.642;8.070;2022-09-21T13:52:42;1.92;;;0.82;;
30215;SDS011;17028;47.642;8.070;2022-09-21T13:57:46;2.72;;;0.88;;
30215;SDS011;17028;47.642;8.070;2022-09-21T14:08:01;1.63;;;0.63;;
30215;SDS011;17028;47.642;8.070;2022-09-21T14:13:15;2.40;;;0.75;;
30215;SDS011;17028;47.642;8.070;2022-09-21T14:18:35;1.65;;;0.80;;
30215;SDS011;17028;47.642;8.070;2022-09-21T14:23:37;2.78;;;0.70;;
30215;SDS011;17028;47.642;8.070;2022-09-21T14:28:43;2.05;;;0.68;;
30215;SDS011;17028;47.642;8.070;2022-09-21T14:33:52;2.15;;;0.90;;
30215;SDS011;17028;47.642;8.070;2022-09-21T14:38:55;2.53;;;0.80;;
30215;SDS011;17028;47.642;8.070;2022-09-21T14:44:00;1.98;;;0.90;;
30215;SDS011;17028;47.642;8.070;2022-09-21T15:05:04;2.35;;;0.90;;
30215;SDS011;17028;47.642;8.070;2022-09-21T15:10:30;1.58;;;0.82;;
30215;SDS011;17028;47.642;8.070;2022-09-21T15:21:26;1.38;;;0.70;;
30215;SDS011;17028;47.642;8.070;2022-09-21T15:26:29;6.20;;;1.05;;
30215;SDS011;17028;47.642;8.070;2022-09-21T15:31:33;1.20;;;0.47;;
30215;SDS011;17028;47.642;8.070;2022-09-21T15:36:40;0.82;;;0.52;;
30215;SDS011;17028;47.642;8.070;2022-09-21T15:41:43;0.82;;;0.50;;
30215;SDS011;17028;47.642;8.070;2022-09-21T15:46:45;1.00;;;0.55;;
30215;SDS011;17028;47.642;8.070;2022-09-21T15:51:51;2.47;;;0.60;;
30215;SDS011;17028;47.642;8.070;2022-09-21T16:02:40;1.75;;;0.52;;
30215;SDS011;17028;47.642;8.070;2022-09-21T16:07:43;1.65;;;0.68;;
30215;SDS011;17028;47.642;8.070;2022-09-21T16:12:45;1.13;;;0.50;;
30215;SDS011;17028;47.642;8.070;2022-09-21T16:17:59;1.98;;;0.77;;
30215;SDS011;17028;47.642;8.070;2022-09-21T16:23:03;1.45;;;0.73;;
30215;SDS011;17028;47.642;8.070;2022-09-21T16:38:37;1.63;;;0.82;;
30215;SDS011;17028;47.642;8.070;2022-09-21T16:43:38;1.17;;;0.73;;
30215;SDS011;17028;47.642;8.070;2022-09-21T16:48:43;2.63;;;0.70;;
30215;SDS011;17028;47.642;8.070;2022-09-21T16:53:44;2.58;;;1.17;;
30215;SDS011;17028;47.642;8.070;2022-09-21T16:58:45;4.05;;;1.38;;
30215;SDS011;17028;47.642;8.070;2022-09-21T17:03:46;3.20;;;1.90;;
30215;SDS011;17028;47.642;8.070;2022-09-21T17:08:48;2.30;;;1.27;;
30215;SDS011;17028;47.642;8.070;2022-09-21T17:13:49;3.05;;;1.23;;
30215;SDS011;17028;47.642;8.070;2022-09-21T17:18:51;1.75;;;0.80;;
30215;SDS011;17028;47.642;8.070;2022-09-21T17:23:52;1.15;;;0.68;;
30215;SDS011;17028;47.642;8.070;2022-09-21T17:28:53;1.95;;;0.80;;
30215;SDS011;17028;47.642;8.070;2022-09-21T17:33:54;2.97;;;1.40;;
30215;SDS011;17028;47.642;8.070;2022-09-21T17:38:56;2.50;;;1.15;;
30215;SDS011;17028;47.642;8.070;2022-09-21T17:44:10;1.67;;;0.90;;
30215;SDS011;17028;47.642;8.070;2022-09-21T17:49:15;2.00;;;0.85;;
30215;SDS011;17028;47.642;8.070;2022-09-21T17:54:16;1.20;;;0.70;;
30215;SDS011;17028;47.642;8.070;2022-09-21T17:59:28;1.05;;;0.75;;
30215;SDS011;17028;47.642;8.070;2022-09-21T18:04:32;0.85;;;0.65;;
30215;SDS011;17028;47.642;8.070;2022-09-21T18:09:34;2.78;;;1.40;;
30215;SDS011;17028;47.642;8.070;2022-09-21T18:14:38;2.63;;;1.50;;
30215;SDS011;17028;47.642;8.070;2022-09-21T18:24:50;1.45;;;0.88;;
30215;SDS011;17028;47.642;8.070;2022-09-21T18:29:51;1.77;;;0.80;;
30215;SDS011;17028;47.642;8.070;2022-09-21T18:35:07;3.25;;;0.90;;
30215;SDS011;17028;47.642;8.070;2022-09-21T18:45:57;1.15;;;0.77;;
30215;SDS011;17028;47.642;8.070;2022-09-21T18:51:09;2.40;;;0.73;;
30215;SDS011;17028;47.642;8.070;2022-09-21T18:56:15;2.13;;;1.00;;
30215;SDS011;17028;47.642;8.070;2022-09-21T19:01:16;1.63;;;0.80;;
30215;SDS011;17028;47.642;8.070;2022-09-21T19:27:46;1.75;;;0.82;;
30215;SDS011;17028;47.642;8.070;2022-09-21T19:32:51;2.03;;;0.95;;
30215;SDS011;17028;47.642;8.070;2022-09-21T19:37:54;1.80;;;0.80;;
30215;SDS011;17028;47.642;8.070;2022-09-21T19:43:01;1.90;;;1.10;;
30215;SDS011;17028;47.642;8.070;2022-09-21T19:48:10;2.08;;;1.13;;
30215;SDS011;17028;47.642;8.070;2022-09-21T19:53:14;4.57;;;1.10;;
30215;SDS011;17028;47.642;8.070;2022-09-21T19:58:34;1.33;;;0.90;;
30215;SDS011;17028;47.642;8.070;2022-09-21T20:03:53;2.65;;;0.80;;
30215;SDS011;17028;47.642;8.070;2022-09-21T20:09:07;3.45;;;1.00;;
30215;SDS011;17028;47.642;8.070;2022-09-21T20:14:20;4.38;;;1.30;;
30215;SDS011;17028;47.642;8.070;2022-09-21T20:19:32;2.35;;;0.98;;
30215;SDS011;17028;47.642;8.070;2022-09-21T20:29:49;2.55;;;1.13;;
30215;SDS011;17028;47.642;8.070;2022-09-21T20:34:50;2.15;;;1.00;;
30215;SDS011;17028;47.642;8.070;2022-09-21T20:39:51;2.25;;;1.15;;
30215;SDS011;17028;47.642;8.070;2022-09-21T20:44:52;2.30;;;0.98;;
30215;SDS011;17028;47.642;8.070;2022-09-21T20:49:53;2.03;;;1.08;;
30215;SDS011;17028;47.642;8.070;2022-09-21T20:54:54;3.40;;;1.05;;
30215;SDS011;17028;47.642;8.070;2022-09-21T20:59:55;1.92;;;1.00;;
30215;SDS011;17028;47.642;8.070;2022-09-21T21:04:57;1.05;;;0.80;;
30215;SDS011;17028;47.642;8.070;2022-09-21T21:09:59;4.60;;;1.23;;
30215;SDS011;17028;47.642;8.070;2022-09-21T21:15:00;1.70;;;0.80;;
30215;SDS011;17028;47.642;8.070;2022-09-21T21:20:01;1.75;;;0.93;;
30215;SDS011;17028;47.642;8.070;2022-09-21T21:25:03;2.20;;;0.90;;
30215;SDS011;17028;47.642;8.070;2022-09-21T21:30:05;2.17;;;1.00;;
30215;SDS011;17028;47.642;8.070;2022-09-21T21:35:07;2.67;;;1.13;;
30215;SDS011;17028;47.642;8.070;2022-09-21T21:40:08;2.42;;;1.00;;
30215;SDS011;17028;47.642;8.070;2022-09-21T21:45:10;2.30;;;0.90;;
30215;SDS011;17028;47.642;8.070;2022-09-21T21:50:11;1.75;;;0.80;;
30215;SDS011;17028;47.642;8.070;2022-09-21T21:55:12;2.47;;;1.00;;
30215;SDS011;17028;47.642;8.070;2022-09-21T22:00:13;1.98;;;0.95;;
30215;SDS011;17028;47.642;8.070;2022-09-21T22:05:14;1.58;;;0.77;;
30215;SDS011;17028;47.642;8.070;2022-09-21T22:10:15;2.30;;;1.00;;
30215;SDS011;17028;47.642;8.070;2022-09-21T22:15:16;2.22;;;1.20;;
30215;SDS011;17028;47.642;8.070;2022-09-21T22:20:18;1.98;;;1.08;;
30215;SDS011;17028;47.642;8.070;2022-09-21T22:25:19;2.42;;;1.00;;
30215;SDS011;17028;47.642;8.070;2022-09-21T22:30:20;1.52;;;1.00;;
30215;SDS011;17028;47.642;8.070;2022-09-21T22:35:21;1.80;;;1.00;;
30215;SDS011;17028;47.642;8.070;2022-09-21T22:40:22;1.77;;;0.82;;
30215;SDS011;17028;47.642;8.070;2022-09-21T22:45:23;1.42;;;0.90;;
30215;SDS011;17028;47.642;8.070;2022-09-21T22:50:25;2.50;;;1.45;;
30215;SDS011;17028;47.642;8.070;2022-09-21T22:55:27;3.58;;;0.95;;
30215;SDS011;17028;47.642;8.070;2022-09-21T23:00:28;1.02;;;0.77;;
30215;SDS011;17028;47.642;8.070;2022-09-21T23:05:29;1.70;;;0.98;;
30215;SDS011;17028;47.642;8.070;2022-09-21T23:10:30;1.67;;;0.90;;
30215;SDS011;17028;47.642;8.070;2022-09-21T23:15:31;2.35;;;0.90;;
30215;SDS011;17028;47.642;8.070;2022-09-21T23:20:32;2.20;;;0.88;;
30215;SDS011;17028;47.642;8.070;2022-09-21T23:25:33;1.63;;;1.08;;
30215;SDS011;17028;47.642;8.070;2022-09-21T23:30:34;1.92;;;1.00;;
30215;SDS011;17028;47.642;8.070;2022-09-21T23:35:39;1.80;;;0.70;;
30215;SDS011;17028;47.642;8.070;2022-09-21T23:40:40;2.22;;;1.10;;
30215;SDS011;17028;47.642;8.070;2022-09-21T23:45:42;1.98;;;0.98;;
30215;SDS011;17028;47.642;8.070;2022-09-21T23:50:43;2.38;;;0.88;;
30215;SDS011;17028;47.642;8.070;2022-09-21T23:55:44;2.05;;;0.90;;
